KMHV/MHV METAR and TAF weather

Enter ICAO airport designator
Station Type Date Time Source
KMHV METAR 2021/04/17 03:20 UTC NOAA

KMHV 170320Z AUTO 31020G27KT 10SM FEW060 FEW075 17/M01 A2992 RMK A01


Station Type Date Time Source
KMHV Decoded METAR 2021/04/17 03:20 UTC NOAA

Mojave, CA, United States (KMHV) 35-04N 118-09W
Apr 16, 2021 - 11:20 PM EDT / 2021.04.17 0320 UTC
Wind: from the NW (310 degrees) at 23 MPH (20 KT) gusting to 31 MPH (27 KT):0
Visibility: 10 mile(s):0
Sky conditions: mostly clear
Temperature: 62 F (17 C)
Dew Point: 30 F (-1 C)
Relative Humidity: 29%
Pressure (altimeter): 29.92 in. Hg (1013 hPa)
ob: KMHV 170320Z AUTO 31020G27KT 10SM FEW060 FEW075 17/M01 A2992 RMK A01
cycle: 3

Station Type Date Time Source
KMHV TAF UTC NOAA

Error!

Example: see airport list